sensor_id;sensor_type;location;lat;lon;timestamp;temperature;humidity
51655;DHT22;37732;53.106;7.030;2023-11-19T00:02:14;9.80;99.90
51655;DHT22;37732;53.106;7.030;2023-11-19T00:04:39;9.90;99.90
51655;DHT22;37732;53.106;7.030;2023-11-19T00:07:05;9.90;99.90
51655;DHT22;37732;53.106;7.030;2023-11-19T00:09:36;10.00;99.90
51655;DHT22;37732;53.106;7.030;2023-11-19T00:12:04;10.10;99.90
51655;DHT22;37732;53.106;7.030;2023-11-19T00:14:30;10.10;99.90
51655;DHT22;37732;53.106;7.030;2023-11-19T00:16:56;10.20;99.90
51655;DHT22;37732;53.106;7.030;2023-11-19T00:19:21;10.20;99.90
51655;DHT22;37732;53.106;7.030;2023-11-19T00:21:47;10.30;99.90
51655;DHT22;37732;53.106;7.030;2023-11-19T00:24:13;10.30;99.90
51655;DHT22;37732;53.106;7.030;2023-11-19T00:26:42;10.40;99.90
51655;DHT22;37732;53.106;7.030;2023-11-19T00:29:07;10.40;99.90
51655;DHT22;37732;53.106;7.030;2023-11-19T00:31:33;10.50;99.90
51655;DHT22;37732;53.106;7.030;2023-11-19T00:33:59;10.50;99.90
51655;DHT22;37732;53.106;7.030;2023-11-19T00:36:24;10.50;99.90
51655;DHT22;37732;53.106;7.030;2023-11-19T00:38:54;10.50;99.90
51655;DHT22;37732;53.106;7.030;2023-11-19T00:41:19;10.50;99.90
51655;DHT22;37732;53.106;7.030;2023-11-19T00:43:45;10.80;99.90
51655;DHT22;37732;53.106;7.030;2023-11-19T00:46:11;10.60;99.90
51655;DHT22;37732;53.106;7.030;2023-11-19T00:48:37;10.60;99.90
51655;DHT22;37732;53.106;7.030;2023-11-19T00:51:03;10.80;99.90
51655;DHT22;37732;53.106;7.030;2023-11-19T00:53:30;10.70;99.90
51655;DHT22;37732;53.106;7.030;2023-11-19T00:55:55;10.70;99.90
51655;DHT22;37732;53.106;7.030;2023-11-19T00:58:21;10.70;99.90
51655;DHT22;37732;53.106;7.030;2023-11-19T01:00:47;10.70;99.90
51655;DHT22;37732;53.106;7.030;2023-11-19T01:03:13;10.60;99.90
51655;DHT22;37732;53.106;7.030;2023-11-19T01:05:40;10.80;99.90
51655;DHT22;37732;53.106;7.030;2023-11-19T01:08:06;10.70;99.90
51655;DHT22;37732;53.106;7.030;2023-11-19T01:10:32;10.70;99.90
51655;DHT22;37732;53.106;7.030;2023-11-19T01:12:57;10.70;99.90
51655;DHT22;37732;53.106;7.030;2023-11-19T01:15:23;10.70;99.90
51655;DHT22;37732;53.106;7.030;2023-11-19T01:17:49;10.70;99.90
51655;DHT22;37732;53.106;7.030;2023-11-19T01:20:15;10.90;99.90
51655;DHT22;37732;53.106;7.030;2023-11-19T01:22:40;10.80;99.90
51655;DHT22;37732;53.106;7.030;2023-11-19T01:25:07;10.90;99.90
51655;DHT22;37732;53.106;7.030;2023-11-19T01:27:33;10.80;99.90
51655;DHT22;37732;53.106;7.030;2023-11-19T01:30:02;10.90;99.90
51655;DHT22;37732;53.106;7.030;2023-11-19T01:32:35;10.90;99.90
51655;DHT22;37732;53.106;7.030;2023-11-19T01:35:03;10.90;99.90
51655;DHT22;37732;53.106;7.030;2023-11-19T01:37:29;11.30;99.90
51655;DHT22;37732;53.106;7.030;2023-11-19T01:39:55;10.90;99.90
51655;DHT22;37732;53.106;7.030;2023-11-19T01:42:21;11.00;99.90
51655;DHT22;37732;53.106;7.030;2023-11-19T01:47:27;11.10;99.90
51655;DHT22;37732;53.106;7.030;2023-11-19T01:49:53;11.20;99.90
51655;DHT22;37732;53.106;7.030;2023-11-19T02:24:08;11.70;99.90
51655;DHT22;37732;53.106;7.030;2023-11-19T02:27:03;11.70;99.90
51655;DHT22;37732;53.106;7.030;2023-11-19T02:29:33;11.80;99.90
51655;DHT22;37732;53.106;7.030;2023-11-19T02:32:00;11.70;99.90
51655;DHT22;37732;53.106;7.030;2023-11-19T02:34:28;11.80;99.90
51655;DHT22;37732;53.106;7.030;2023-11-19T02:36:54;11.80;99.90
51655;DHT22;37732;53.106;7.030;2023-11-19T02:39:20;11.70;99.90
51655;DHT22;37732;53.106;7.030;2023-11-19T02:41:47;11.70;99.90
51655;DHT22;37732;53.106;7.030;2023-11-19T02:44:16;11.80;99.90
51655;DHT22;37732;53.106;7.030;2023-11-19T02:46:42;11.80;99.90
51655;DHT22;37732;53.106;7.030;2023-11-19T02:49:08;11.80;99.90
51655;DHT22;37732;53.106;7.030;2023-11-19T02:51:34;11.80;99.90
51655;DHT22;37732;53.106;7.030;2023-11-19T02:54:00;11.90;99.90
51655;DHT22;37732;53.106;7.030;2023-11-19T02:56:26;11.80;99.90
51655;DHT22;37732;53.106;7.030;2023-11-19T02:58:52;12.00;99.90
51655;DHT22;37732;53.106;7.030;2023-11-19T03:01:27;11.80;99.90
51655;DHT22;37732;53.106;7.030;2023-11-19T03:03:59;12.00;99.90
51655;DHT22;37732;53.106;7.030;2023-11-19T03:06:26;11.90;99.90
51655;DHT22;37732;53.106;7.030;2023-11-19T03:08:52;11.90;99.90
51655;DHT22;37732;53.106;7.030;2023-11-19T03:11:18;12.00;99.90
51655;DHT22;37732;53.106;7.030;2023-11-19T03:13:44;11.90;99.90
51655;DHT22;37732;53.106;7.030;2023-11-19T03:16:09;11.90;99.90
51655;DHT22;37732;53.106;7.030;2023-11-19T03:18:37;11.90;99.90
51655;DHT22;37732;53.106;7.030;2023-11-19T03:21:05;12.00;99.90
51655;DHT22;37732;53.106;7.030;2023-11-19T03:23:31;12.00;99.90
51655;DHT22;37732;53.106;7.030;2023-11-19T03:25:57;11.90;99.90
51655;DHT22;37732;53.106;7.030;2023-11-19T03:28:22;11.90;99.90
51655;DHT22;37732;53.106;7.030;2023-11-19T03:30:48;11.90;99.90
51655;DHT22;37732;53.106;7.030;2023-11-19T03:33:14;12.00;99.90
51655;DHT22;37732;53.106;7.030;2023-11-19T03:35:39;12.00;99.90
51655;DHT22;37732;53.106;7.030;2023-11-19T03:38:06;12.00;99.90
51655;DHT22;37732;53.106;7.030;2023-11-19T03:40:32;11.90;99.90
51655;DHT22;37732;53.106;7.030;2023-11-19T03:42:58;12.00;99.90
51655;DHT22;37732;53.106;7.030;2023-11-19T03:45:24;12.10;99.90
51655;DHT22;37732;53.106;7.030;2023-11-19T03:47:50;12.10;99.90
51655;DHT22;37732;53.106;7.030;2023-11-19T03:50:16;12.00;99.90
51655;DHT22;37732;53.106;7.030;2023-11-19T03:52:43;12.10;99.90
51655;DHT22;37732;53.106;7.030;2023-11-19T03:55:09;11.90;99.90
51655;DHT22;37732;53.106;7.030;2023-11-19T03:57:35;12.10;99.90
51655;DHT22;37732;53.106;7.030;2023-11-19T04:00:01;12.00;99.90
51655;DHT22;37732;53.106;7.030;2023-11-19T04:02:35;12.00;99.90
51655;DHT22;37732;53.106;7.030;2023-11-19T04:05:01;11.90;99.90
51655;DHT22;37732;53.106;7.030;2023-11-19T04:07:26;12.00;99.90
51655;DHT22;37732;53.106;7.030;2023-11-19T04:09:52;12.00;99.90
51655;DHT22;37732;53.106;7.030;2023-11-19T04:12:18;11.90;99.90
51655;DHT22;37732;53.106;7.030;2023-11-19T04:14:43;12.00;99.90
51655;DHT22;37732;53.106;7.030;2023-11-19T04:17:09;12.10;99.90
51655;DHT22;37732;53.106;7.030;2023-11-19T04:19:35;12.00;99.90
51655;DHT22;37732;53.106;7.030;2023-11-19T04:22:01;12.00;99.90
51655;DHT22;37732;53.106;7.030;2023-11-19T04:24:27;12.00;99.90
51655;DHT22;37732;53.106;7.030;2023-11-19T04:26:53;12.00;99.90
51655;DHT22;37732;53.106;7.030;2023-11-19T04:29:19;12.10;99.90
51655;DHT22;37732;53.106;7.030;2023-11-19T04:31:45;12.10;99.90
51655;DHT22;37732;53.106;7.030;2023-11-19T04:34:11;12.20;99.90
51655;DHT22;37732;53.106;7.030;2023-11-19T04:36:37;12.00;99.90
51655;DHT22;37732;53.106;7.030;2023-11-19T04:39:03;12.10;99.90
51655;DHT22;37732;53.106;7.030;2023-11-19T04:41:48;12.10;99.90
51655;DHT22;37732;53.106;7.030;2023-11-19T04:44:14;12.10;99.90
51655;DHT22;37732;53.106;7.030;2023-11-19T04:46:41;12.00;99.90
51655;DHT22;37732;53.106;7.030;2023-11-19T04:49:09;12.10;99.90
51655;DHT22;37732;53.106;7.030;2023-11-19T04:51:43;12.10;99.90
51655;DHT22;37732;53.106;7.030;2023-11-19T04:54:10;12.10;99.90
51655;DHT22;37732;53.106;7.030;2023-11-19T04:56:38;11.90;99.90
51655;DHT22;37732;53.106;7.030;2023-11-19T04:59:05;12.10;99.90
51655;DHT22;37732;53.106;7.030;2023-11-19T05:01:35;12.10;99.90
51655;DHT22;37732;53.106;7.030;2023-11-19T05:04:01;12.00;99.90
51655;DHT22;37732;53.106;7.030;2023-11-19T05:06:31;12.00;99.90
51655;DHT22;37732;53.106;7.030;2023-11-19T05:08:59;11.90;99.90
51655;DHT22;37732;53.106;7.030;2023-11-19T05:11:26;11.90;99.90
51655;DHT22;37732;53.106;7.030;2023-11-19T05:13:54;11.90;99.90
51655;DHT22;37732;53.106;7.030;2023-11-19T05:16:19;11.90;99.90
51655;DHT22;37732;53.106;7.030;2023-11-19T05:18:46;11.80;99.90
51655;DHT22;37732;53.106;7.030;2023-11-19T05:21:12;11.80;99.90
51655;DHT22;37732;53.106;7.030;2023-11-19T05:23:38;11.90;99.90
51655;DHT22;37732;53.106;7.030;2023-11-19T05:26:04;11.80;99.90
51655;DHT22;37732;53.106;7.030;2023-11-19T05:28:30;11.80;99.90
51655;DHT22;37732;53.106;7.030;2023-11-19T05:30:57;11.80;99.90
51655;DHT22;37732;53.106;7.030;2023-11-19T05:33:23;11.80;99.90
51655;DHT22;37732;53.106;7.030;2023-11-19T05:35:48;11.70;99.90
51655;DHT22;37732;53.106;7.030;2023-11-19T05:38:14;11.80;99.90
51655;DHT22;37732;53.106;7.030;2023-11-19T05:40:41;11.80;99.90
51655;DHT22;37732;53.106;7.030;2023-11-19T05:43:07;12.00;99.90
51655;DHT22;37732;53.106;7.030;2023-11-19T05:45:32;11.80;99.90
51655;DHT22;37732;53.106;7.030;2023-11-19T05:47:58;11.70;99.90
51655;DHT22;37732;53.106;7.030;2023-11-19T05:50:25;11.70;99.90
51655;DHT22;37732;53.106;7.030;2023-11-19T05:52:52;11.60;99.90
51655;DHT22;37732;53.106;7.030;2023-11-19T05:55:19;11.70;99.90
51655;DHT22;37732;53.106;7.030;2023-11-19T05:57:45;11.60;99.90
51655;DHT22;37732;53.106;7.030;2023-11-19T06:00:11;11.80;99.90
51655;DHT22;37732;53.106;7.030;2023-11-19T06:02:38;11.60;99.90
51655;DHT22;37732;53.106;7.030;2023-11-19T06:05:04;11.60;99.90
51655;DHT22;37732;53.106;7.030;2023-11-19T06:07:35;11.50;99.90
51655;DHT22;37732;53.106;7.030;2023-11-19T06:10:02;11.60;99.90
51655;DHT22;37732;53.106;7.030;2023-11-19T06:12:36;11.50;99.90
51655;DHT22;37732;53.106;7.030;2023-11-19T06:15:07;11.50;99.90
51655;DHT22;37732;53.106;7.030;2023-11-19T06:17:34;11.50;99.90
51655;DHT22;37732;53.106;7.030;2023-11-19T06:20:00;11.60;99.90
51655;DHT22;37732;53.106;7.030;2023-11-19T06:22:25;11.50;99.90
51655;DHT22;37732;53.106;7.030;2023-11-19T06:24:51;11.50;99.90
51655;DHT22;37732;53.106;7.030;2023-11-19T06:27:16;11.60;99.90
51655;DHT22;37732;53.106;7.030;2023-11-19T06:29:42;11.60;99.90
51655;DHT22;37732;53.106;7.030;2023-11-19T06:32:08;11.50;99.90
51655;DHT22;37732;53.106;7.030;2023-11-19T06:34:34;11.50;99.90
51655;DHT22;37732;53.106;7.030;2023-11-19T06:37:00;11.60;99.90
51655;DHT22;37732;53.106;7.030;2023-11-19T06:39:25;11.50;99.90
51655;DHT22;37732;53.106;7.030;2023-11-19T06:41:51;11.40;99.90
51655;DHT22;37732;53.106;7.030;2023-11-19T06:44:17;11.50;99.90
51655;DHT22;37732;53.106;7.030;2023-11-19T06:46:43;11.50;99.90
51655;DHT22;37732;53.106;7.030;2023-11-19T06:49:09;11.50;99.90
51655;DHT22;37732;53.106;7.030;2023-11-19T06:51:34;11.40;99.90
51655;DHT22;37732;53.106;7.030;2023-11-19T06:54:00;11.40;99.90
51655;DHT22;37732;53.106;7.030;2023-11-19T06:56:26;11.40;99.90
51655;DHT22;37732;53.106;7.030;2023-11-19T06:58:52;11.40;99.90
51655;DHT22;37732;53.106;7.030;2023-11-19T07:01:18;11.40;99.90
51655;DHT22;37732;53.106;7.030;2023-11-19T07:03:45;11.40;99.90
51655;DHT22;37732;53.106;7.030;2023-11-19T07:06:11;11.40;99.90
51655;DHT22;37732;53.106;7.030;2023-11-19T07:08:39;11.50;99.90
51655;DHT22;37732;53.106;7.030;2023-11-19T07:11:06;11.40;99.90
51655;DHT22;37732;53.106;7.030;2023-11-19T07:13:32;11.30;99.90
51655;DHT22;37732;53.106;7.030;2023-11-19T07:15:57;12.00;99.90
51655;DHT22;37732;53.106;7.030;2023-11-19T07:18:24;11.30;99.90
51655;DHT22;37732;53.106;7.030;2023-11-19T07:20:50;11.30;99.90
51655;DHT22;37732;53.106;7.030;2023-11-19T07:23:16;11.20;99.90
51655;DHT22;37732;53.106;7.030;2023-11-19T07:25:45;11.30;99.90
51655;DHT22;37732;53.106;7.030;2023-11-19T07:28:15;11.30;99.90
51655;DHT22;37732;53.106;7.030;2023-11-19T07:30:42;11.30;99.90
51655;DHT22;37732;53.106;7.030;2023-11-19T07:33:07;11.40;99.90
51655;DHT22;37732;53.106;7.030;2023-11-19T07:35:33;12.00;99.90
51655;DHT22;37732;53.106;7.030;2023-11-19T07:37:59;11.40;99.90
51655;DHT22;37732;53.106;7.030;2023-11-19T07:40:25;11.30;99.90
51655;DHT22;37732;53.106;7.030;2023-11-19T07:42:50;11.40;99.90
51655;DHT22;37732;53.106;7.030;2023-11-19T07:45:17;11.20;99.90
51655;DHT22;37732;53.106;7.030;2023-11-19T07:47:43;11.40;99.90
51655;DHT22;37732;53.106;7.030;2023-11-19T07:50:11;11.40;99.90
51655;DHT22;37732;53.106;7.030;2023-11-19T07:52:39;11.30;99.90
51655;DHT22;37732;53.106;7.030;2023-11-19T07:55:05;11.30;99.90
51655;DHT22;37732;53.106;7.030;2023-11-19T07:57:31;11.30;99.90
51655;DHT22;37732;53.106;7.030;2023-11-19T07:59:57;11.40;99.90
51655;DHT22;37732;53.106;7.030;2023-11-19T08:02:23;11.40;99.90
51655;DHT22;37732;53.106;7.030;2023-11-19T08:04:50;11.10;99.90
51655;DHT22;37732;53.106;7.030;2023-11-19T08:07:21;11.30;99.90
51655;DHT22;37732;53.106;7.030;2023-11-19T08:09:47;11.30;99.90
51655;DHT22;37732;53.106;7.030;2023-11-19T08:12:13;11.30;99.90
51655;DHT22;37732;53.106;7.030;2023-11-19T08:14:43;11.30;99.90
51655;DHT22;37732;53.106;7.030;2023-11-19T08:17:09;11.20;99.90
51655;DHT22;37732;53.106;7.030;2023-11-19T08:19:35;11.30;99.90
51655;DHT22;37732;53.106;7.030;2023-11-19T08:22:01;11.40;99.90
51655;DHT22;37732;53.106;7.030;2023-11-19T08:24:27;11.30;99.90
51655;DHT22;37732;53.106;7.030;2023-11-19T08:26:53;11.50;99.90
51655;DHT22;37732;53.106;7.030;2023-11-19T08:29:19;11.40;99.90
51655;DHT22;37732;53.106;7.030;2023-11-19T08:31:45;11.40;99.90
51655;DHT22;37732;53.106;7.030;2023-11-19T08:34:11;11.30;99.90
51655;DHT22;37732;53.106;7.030;2023-11-19T08:36:37;11.40;99.90
51655;DHT22;37732;53.106;7.030;2023-11-19T08:39:03;11.30;99.90
51655;DHT22;37732;53.106;7.030;2023-11-19T08:41:28;11.30;99.90
51655;DHT22;37732;53.106;7.030;2023-11-19T08:43:54;11.20;99.90
51655;DHT22;37732;53.106;7.030;2023-11-19T08:46:20;11.40;99.90
51655;DHT22;37732;53.106;7.030;2023-11-19T08:48:45;11.40;99.90
51655;DHT22;37732;53.106;7.030;2023-11-19T08:51:12;11.40;99.90
51655;DHT22;37732;53.106;7.030;2023-11-19T08:53:38;11.40;99.90
51655;DHT22;37732;53.106;7.030;2023-11-19T08:56:04;11.40;99.90
51655;DHT22;37732;53.106;7.030;2023-11-19T08:58:30;11.50;99.90
51655;DHT22;37732;53.106;7.030;2023-11-19T09:00:56;11.50;99.90
51655;DHT22;37732;53.106;7.030;2023-11-19T09:03:23;11.50;99.90
51655;DHT22;37732;53.106;7.030;2023-11-19T09:05:49;11.50;99.90
51655;DHT22;37732;53.106;7.030;2023-11-19T09:08:14;11.50;99.90
51655;DHT22;37732;53.106;7.030;2023-11-19T09:10:40;11.40;99.90
51655;DHT22;37732;53.106;7.030;2023-11-19T09:13:06;11.40;99.90
51655;DHT22;37732;53.106;7.030;2023-11-19T09:15:31;11.30;99.90
51655;DHT22;37732;53.106;7.030;2023-11-19T09:17:57;11.40;99.90
51655;DHT22;37732;53.106;7.030;2023-11-19T09:20:23;11.30;99.90
51655;DHT22;37732;53.106;7.030;2023-11-19T09:22:49;11.10;99.90
51655;DHT22;37732;53.106;7.030;2023-11-19T09:25:14;11.30;99.90
51655;DHT22;37732;53.106;7.030;2023-11-19T09:27:44;11.20;99.90
51655;DHT22;37732;53.106;7.030;2023-11-19T09:30:10;11.30;99.90
51655;DHT22;37732;53.106;7.030;2023-11-19T09:32:36;11.20;99.90
51655;DHT22;37732;53.106;7.030;2023-11-19T09:35:03;11.30;99.90
51655;DHT22;37732;53.106;7.030;2023-11-19T09:37:29;11.30;99.90
51655;DHT22;37732;53.106;7.030;2023-11-19T09:39:54;11.20;99.90
51655;DHT22;37732;53.106;7.030;2023-11-19T09:42:20;11.20;99.90
51655;DHT22;37732;53.106;7.030;2023-11-19T09:44:47;11.30;99.90
51655;DHT22;37732;53.106;7.030;2023-11-19T09:47:14;11.30;99.90
51655;DHT22;37732;53.106;7.030;2023-11-19T09:49:42;11.30;99.90
51655;DHT22;37732;53.106;7.030;2023-11-19T09:52:08;11.90;99.90
51655;DHT22;37732;53.106;7.030;2023-11-19T09:54:34;11.40;99.90
51655;DHT22;37732;53.106;7.030;2023-11-19T09:57:02;11.50;99.90
51655;DHT22;37732;53.106;7.030;2023-11-19T09:59:31;11.60;99.90
51655;DHT22;37732;53.106;7.030;2023-11-19T10:01:59;11.60;99.90
51655;DHT22;37732;53.106;7.030;2023-11-19T10:04:25;11.60;99.90
51655;DHT22;37732;53.106;7.030;2023-11-19T10:06:54;11.60;99.90
51655;DHT22;37732;53.106;7.030;2023-11-19T10:09:20;11.60;99.90
51655;DHT22;37732;53.106;7.030;2023-11-19T10:11:46;11.70;99.90
51655;DHT22;37732;53.106;7.030;2023-11-19T10:14:11;11.60;99.90
51655;DHT22;37732;53.106;7.030;2023-11-19T10:16:38;11.70;99.90
51655;DHT22;37732;53.106;7.030;2023-11-19T10:19:04;11.70;99.90
51655;DHT22;37732;53.106;7.030;2023-11-19T10:21:32;11.80;99.90
51655;DHT22;37732;53.106;7.030;2023-11-19T10:23:59;11.90;99.90
51655;DHT22;37732;53.106;7.030;2023-11-19T10:26:27;11.80;99.90
51655;DHT22;37732;53.106;7.030;2023-11-19T10:28:55;11.70;99.90
51655;DHT22;37732;53.106;7.030;2023-11-19T10:31:21;11.90;99.90
51655;DHT22;37732;53.106;7.030;2023-11-19T10:33:50;11.80;99.90
51655;DHT22;37732;53.106;7.030;2023-11-19T10:36:17;11.80;99.90
51655;DHT22;37732;53.106;7.030;2023-11-19T10:38:55;11.80;99.90
51655;DHT22;37732;53.106;7.030;2023-11-19T10:41:31;11.90;99.90
51655;DHT22;37732;53.106;7.030;2023-11-19T10:43:58;11.90;99.90
51655;DHT22;37732;53.106;7.030;2023-11-19T10:46:39;11.80;99.90
51655;DHT22;37732;53.106;7.030;2023-11-19T10:49:09;11.90;99.90
51655;DHT22;37732;53.106;7.030;2023-11-19T10:51:36;11.90;99.90
51655;DHT22;37732;53.106;7.030;2023-11-19T10:54:03;11.90;99.90
51655;DHT22;37732;53.106;7.030;2023-11-19T10:56:32;11.90;99.90
51655;DHT22;37732;53.106;7.030;2023-11-19T10:58:59;11.80;99.90
51655;DHT22;37732;53.106;7.030;2023-11-19T11:01:29;11.70;99.90
51655;DHT22;37732;53.106;7.030;2023-11-19T11:03:59;11.80;99.90
51655;DHT22;37732;53.106;7.030;2023-11-19T11:06:27;11.80;99.90
51655;DHT22;37732;53.106;7.030;2023-11-19T11:08:54;11.70;99.90
51655;DHT22;37732;53.106;7.030;2023-11-19T11:11:20;11.70;99.90
51655;DHT22;37732;53.106;7.030;2023-11-19T11:13:50;11.60;99.90
51655;DHT22;37732;53.106;7.030;2023-11-19T11:16:19;11.70;99.90
51655;DHT22;37732;53.106;7.030;2023-11-19T11:18:47;11.60;99.90
51655;DHT22;37732;53.106;7.030;2023-11-19T11:21:17;11.60;99.90
51655;DHT22;37732;53.106;7.030;2023-11-19T11:29:10;11.50;99.90
51655;DHT22;37732;53.106;7.030;2023-11-19T11:39:52;11.50;99.90
51655;DHT22;37732;53.106;7.030;2023-11-19T11:44:59;11.50;99.90
51655;DHT22;37732;53.106;7.030;2023-11-19T11:50:12;11.80;99.90
51655;DHT22;37732;53.106;7.030;2023-11-19T11:55:28;11.80;99.90
51655;DHT22;37732;53.106;7.030;2023-11-19T11:57:56;12.00;99.90
51655;DHT22;37732;53.106;7.030;2023-11-19T12:00:37;12.00;99.90
51655;DHT22;37732;53.106;7.030;2023-11-19T12:03:05;12.10;99.90
51655;DHT22;37732;53.106;7.030;2023-11-19T12:05:32;12.10;99.90
51655;DHT22;37732;53.106;7.030;2023-11-19T12:08:03;12.10;99.90
51655;DHT22;37732;53.106;7.030;2023-11-19T12:10:31;12.00;99.90
51655;DHT22;37732;53.106;7.030;2023-11-19T12:13:01;11.80;99.90
51655;DHT22;37732;53.106;7.030;2023-11-19T12:15:27;11.90;99.90
51655;DHT22;37732;53.106;7.030;2023-11-19T12:17:56;11.90;99.90
51655;DHT22;37732;53.106;7.030;2023-11-19T12:20:24;11.80;99.90
51655;DHT22;37732;53.106;7.030;2023-11-19T12:22:50;11.90;99.90
51655;DHT22;37732;53.106;7.030;2023-11-19T12:25:18;11.80;99.90
51655;DHT22;37732;53.106;7.030;2023-11-19T12:27:50;11.80;99.90
51655;DHT22;37732;53.106;7.030;2023-11-19T12:30:25;11.80;99.90
51655;DHT22;37732;53.106;7.030;2023-11-19T12:32:51;11.80;99.90
51655;DHT22;37732;53.106;7.030;2023-11-19T12:35:19;11.80;99.90
51655;DHT22;37732;53.106;7.030;2023-11-19T12:37:50;11.80;99.90
51655;DHT22;37732;53.106;7.030;2023-11-19T12:40:24;12.00;99.90
51655;DHT22;37732;53.106;7.030;2023-11-19T12:42:51;11.90;99.90
51655;DHT22;37732;53.106;7.030;2023-11-19T12:45:18;12.00;99.90
51655;DHT22;37732;53.106;7.030;2023-11-19T12:47:45;11.90;99.90
51655;DHT22;37732;53.106;7.030;2023-11-19T12:50:16;11.90;99.90
51655;DHT22;37732;53.106;7.030;2023-11-19T12:52:58;11.80;99.90
51655;DHT22;37732;53.106;7.030;2023-11-19T12:55:28;11.90;99.90
51655;DHT22;37732;53.106;7.030;2023-11-19T12:57:54;11.80;99.90
51655;DHT22;37732;53.106;7.030;2023-11-19T13:00:23;12.00;99.90
51655;DHT22;37732;53.106;7.030;2023-11-19T13:02:51;12.00;99.90
51655;DHT22;37732;53.106;7.030;2023-11-19T13:05:29;12.10;99.90
51655;DHT22;37732;53.106;7.030;2023-11-19T13:08:01;11.90;99.90
51655;DHT22;37732;53.106;7.030;2023-11-19T13:10:28;11.80;99.90
51655;DHT22;37732;53.106;7.030;2023-11-19T13:13:01;11.80;99.90
51655;DHT22;37732;53.106;7.030;2023-11-19T13:15:27;11.80;99.90
51655;DHT22;37732;53.106;7.030;2023-11-19T13:17:54;11.80;99.90
51655;DHT22;37732;53.106;7.030;2023-11-19T13:20:19;11.80;99.90
51655;DHT22;37732;53.106;7.030;2023-11-19T13:23:00;11.70;99.90
51655;DHT22;37732;53.106;7.030;2023-11-19T13:25:27;11.80;99.90
51655;DHT22;37732;53.106;7.030;2023-11-19T13:27:53;11.70;99.90
51655;DHT22;37732;53.106;7.030;2023-11-19T13:30:20;11.70;99.90
51655;DHT22;37732;53.106;7.030;2023-11-19T13:32:46;11.70;99.90
51655;DHT22;37732;53.106;7.030;2023-11-19T13:35:15;11.80;99.90
51655;DHT22;37732;53.106;7.030;2023-11-19T13:37:43;11.80;99.90
51655;DHT22;37732;53.106;7.030;2023-11-19T13:40:09;11.90;99.90
51655;DHT22;37732;53.106;7.030;2023-11-19T13:42:43;11.80;99.90
51655;DHT22;37732;53.106;7.030;2023-11-19T13:45:13;11.70;99.90
51655;DHT22;37732;53.106;7.030;2023-11-19T13:47:44;11.80;99.90
51655;DHT22;37732;53.106;7.030;2023-11-19T13:50:12;11.80;99.90
51655;DHT22;37732;53.106;7.030;2023-11-19T13:52:39;11.80;99.90
51655;DHT22;37732;53.106;7.030;2023-11-19T13:55:09;11.80;99.90
51655;DHT22;37732;53.106;7.030;2023-11-19T13:57:36;11.80;99.90
51655;DHT22;37732;53.106;7.030;2023-11-19T14:00:07;11.70;99.90
51655;DHT22;37732;53.106;7.030;2023-11-19T14:02:42;11.70;99.90
51655;DHT22;37732;53.106;7.030;2023-11-19T14:05:11;11.60;99.90
51655;DHT22;37732;53.106;7.030;2023-11-19T14:07:37;11.70;99.90
51655;DHT22;37732;53.106;7.030;2023-11-19T14:10:04;11.60;99.90
51655;DHT22;37732;53.106;7.030;2023-11-19T14:12:31;11.50;99.90
51655;DHT22;37732;53.106;7.030;2023-11-19T14:14:58;11.60;99.90
51655;DHT22;37732;53.106;7.030;2023-11-19T14:17:24;11.50;99.90
51655;DHT22;37732;53.106;7.030;2023-11-19T14:19:50;11.60;99.90
51655;DHT22;37732;53.106;7.030;2023-11-19T14:22:16;11.60;99.90
51655;DHT22;37732;53.106;7.030;2023-11-19T14:24:42;11.50;99.90
51655;DHT22;37732;53.106;7.030;2023-11-19T14:27:09;11.50;99.90
51655;DHT22;37732;53.106;7.030;2023-11-19T14:29:35;11.60;99.90
51655;DHT22;37732;53.106;7.030;2023-11-19T14:32:02;11.50;99.90
51655;DHT22;37732;53.106;7.030;2023-11-19T14:34:31;11.60;99.90
51655;DHT22;37732;53.106;7.030;2023-11-19T14:37:00;11.50;99.90
51655;DHT22;37732;53.106;7.030;2023-11-19T14:39:26;11.60;99.90
51655;DHT22;37732;53.106;7.030;2023-11-19T14:41:52;11.50;99.90
51655;DHT22;37732;53.106;7.030;2023-11-19T14:44:19;11.40;99.90
51655;DHT22;37732;53.106;7.030;2023-11-19T14:46:46;11.50;99.90
51655;DHT22;37732;53.106;7.030;2023-11-19T14:49:12;11.60;99.90
51655;DHT22;37732;53.106;7.030;2023-11-19T14:51:39;11.30;99.90
51655;DHT22;37732;53.106;7.030;2023-11-19T14:54:05;11.30;99.90
51655;DHT22;37732;53.106;7.030;2023-11-19T14:56:31;11.50;99.90
51655;DHT22;37732;53.106;7.030;2023-11-19T14:58:57;11.40;99.90
51655;DHT22;37732;53.106;7.030;2023-11-19T15:01:24;11.40;99.90
51655;DHT22;37732;53.106;7.030;2023-11-19T15:03:50;11.40;99.90
51655;DHT22;37732;53.106;7.030;2023-11-19T15:06:16;11.30;99.90
51655;DHT22;37732;53.106;7.030;2023-11-19T15:08:41;11.30;99.90
51655;DHT22;37732;53.106;7.030;2023-11-19T15:11:07;11.30;99.90
51655;DHT22;37732;53.106;7.030;2023-11-19T15:13:35;11.40;99.90
51655;DHT22;37732;53.106;7.030;2023-11-19T15:16:03;11.30;99.90
51655;DHT22;37732;53.106;7.030;2023-11-19T15:18:31;11.40;99.90
51655;DHT22;37732;53.106;7.030;2023-11-19T15:20:57;11.50;99.90
51655;DHT22;37732;53.106;7.030;2023-11-19T15:23:23;11.30;99.90
51655;DHT22;37732;53.106;7.030;2023-11-19T15:25:48;11.30;99.90
51655;DHT22;37732;53.106;7.030;2023-11-19T15:28:15;11.30;99.90
51655;DHT22;37732;53.106;7.030;2023-11-19T15:30:40;11.40;99.90
51655;DHT22;37732;53.106;7.030;2023-11-19T15:33:06;11.30;99.90
51655;DHT22;37732;53.106;7.030;2023-11-19T15:35:34;11.30;99.90
51655;DHT22;37732;53.106;7.030;2023-11-19T15:38:00;11.30;99.90
51655;DHT22;37732;53.106;7.030;2023-11-19T15:40:26;11.30;99.90
51655;DHT22;37732;53.106;7.030;2023-11-19T15:42:52;11.40;99.90
51655;DHT22;37732;53.106;7.030;2023-11-19T15:45:20;11.30;99.90
51655;DHT22;37732;53.106;7.030;2023-11-19T15:47:46;11.30;99.90
51655;DHT22;37732;53.106;7.030;2023-11-19T15:50:12;11.20;99.90
51655;DHT22;37732;53.106;7.030;2023-11-19T15:52:38;11.10;99.90
51655;DHT22;37732;53.106;7.030;2023-11-19T15:55:04;11.10;99.90
51655;DHT22;37732;53.106;7.030;2023-11-19T15:57:30;11.10;99.90
51655;DHT22;37732;53.106;7.030;2023-11-19T15:59:55;11.00;99.90
51655;DHT22;37732;53.106;7.030;2023-11-19T16:02:21;11.10;99.90
51655;DHT22;37732;53.106;7.030;2023-11-19T16:04:47;11.00;99.90
51655;DHT22;37732;53.106;7.030;2023-11-19T16:07:16;11.10;99.90
51655;DHT22;37732;53.106;7.030;2023-11-19T16:09:43;11.10;99.90
51655;DHT22;37732;53.106;7.030;2023-11-19T16:12:09;11.10;99.90
51655;DHT22;37732;53.106;7.030;2023-11-19T16:14:37;11.00;99.90
51655;DHT22;37732;53.106;7.030;2023-11-19T16:17:02;11.00;99.90
51655;DHT22;37732;53.106;7.030;2023-11-19T16:19:29;11.10;99.90
51655;DHT22;37732;53.106;7.030;2023-11-19T16:21:54;10.90;99.90
51655;DHT22;37732;53.106;7.030;2023-11-19T16:24:20;11.00;99.90
51655;DHT22;37732;53.106;7.030;2023-11-19T16:26:45;10.90;99.90